Time;durP1;ratioP1;P1;durP2;ratioP2;P2;SDS_P1;SDS_P2;PMS_P1;PMS_P2;Temp;Humidity;BMP_temperature;BMP_pressure;BME280_temperature;BME280_humidity;BME280_pressure;Samples;Min_cycle;Max_cycle;Signal;HPM_P1;HPM_P2
2022/12/23 00:01:31;;;;;;;7.95;4.70;;;;;;;14.68;51.17;92617.38;4939759;28;20505;-93
2022/12/23 00:03:57;;;;;;;9.27;4.75;;;;;;;14.67;50.85;92620.59;4956790;28;20055;-93
2022/12/23 00:06:22;;;;;;;7.15;4.70;;;;;;;14.69;50.77;92615.41;4956299;28;20996;-95
2022/12/23 00:08:47;;;;;;;6.90;4.80;;;;;;;14.70;50.60;92623.06;4956428;28;20043;-92
2022/12/23 00:11:15;;;;;;;10.30;4.25;;;;;;;14.70;51.18;92623.06;4972070;28;20066;-91
2022/12/23 00:16:24;;;;;;;7.95;4.47;;;;;;;14.69;50.75;92615.41;4957950;28;20069;-93
2022/12/23 00:18:51;;;;;;;8.98;4.20;;;;;;;14.68;50.88;92608.47;4956875;28;20047;-90
2022/12/23 00:21:16;;;;;;;7.13;4.30;;;;;;;14.68;50.72;92609.22;4937101;28;20039;-95
2022/12/23 00:23:43;;;;;;;7.82;4.60;;;;;;;14.70;50.78;92609.47;4971436;28;20370;-93
2022/12/23 00:26:13;;;;;;;5.40;4.28;;;;;;;14.71;50.58;92610.94;4956370;28;20042;-92
2022/12/23 00:28:38;;;;;;;7.20;4.57;;;;;;;14.70;50.91;92612.19;4972762;28;20393;-89
2022/12/23 00:31:05;;;;;;;6.53;4.18;;;;;;;14.66;50.73;92598.09;4971220;28;20046;-90
2022/12/23 00:33:33;;;;;;;8.82;4.45;;;;;;;14.66;50.97;92606.25;4940113;28;20078;-87
2022/12/23 00:35:59;;;;;;;4.63;3.90;;;;;;;14.71;50.59;92591.16;4952875;28;20076;-92
2022/12/23 00:44:01;;;;;;;4.53;3.80;;;;;;;14.69;50.40;92590.91;4957613;28;20091;-91
2022/12/23 00:46:26;;;;;;;5.50;4.10;;;;;;;14.65;50.94;92587.72;4955003;28;20464;-92
2022/12/23 00:51:36;;;;;;;6.03;3.90;;;;;;;14.68;50.91;92582.03;4983981;28;20057;-95
2022/12/23 00:54:01;;;;;;;6.18;3.40;;;;;;;14.70;50.77;92567.91;4939641;28;20035;-92
2022/12/23 00:56:27;;;;;;;9.73;4.25;;;;;;;14.70;50.92;92578.78;4971064;28;20042;-91
2022/12/23 00:58:52;;;;;;;5.75;3.67;;;;;;;14.69;50.86;92567.19;4955663;28;20563;-93
2022/12/23 01:06:45;;;;;;;7.03;3.53;;;;;;;14.68;50.79;92582.03;4971095;28;20070;-94
2022/12/23 01:09:11;;;;;;;5.20;3.63;;;;;;;14.69;50.81;92583.50;4954831;28;20039;-91
2022/12/23 01:11:36;;;;;;;4.93;3.55;;;;;;;14.73;50.96;92596.81;4955138;28;20046;-92
2022/12/23 01:14:01;;;;;;;4.53;3.50;;;;;;;14.67;51.00;92594.13;4971399;28;20045;-90
2022/12/23 01:16:27;;;;;;;4.95;3.60;;;;;;;14.65;50.53;92590.44;4954305;28;20042;-90
2022/12/23 01:18:52;;;;;;;4.60;3.30;;;;;;;14.68;51.01;92592.91;4956085;28;20042;-88
2022/12/23 01:21:18;;;;;;;4.38;3.38;;;;;;;14.66;50.74;92589.22;4954324;28;20043;-92
2022/12/23 01:23:43;;;;;;;5.32;3.30;;;;;;;14.71;50.87;92591.16;4954323;28;20065;-92
2022/12/23 01:26:09;;;;;;;4.80;3.38;;;;;;;14.72;50.93;92593.34;4951840;28;20511;-90
2022/12/23 01:28:35;;;;;;;6.20;3.47;;;;;;;14.68;50.72;92584.00;4946555;28;20051;-89
2022/12/23 01:31:00;;;;;;;6.47;3.45;;;;;;;14.67;50.79;92579.81;4939056;28;20109;-88
2022/12/23 01:33:26;;;;;;;7.45;3.67;;;;;;;14.67;50.63;92574.38;4954507;28;20078;-92
2022/12/23 01:35:57;;;;;;;4.28;3.28;;;;;;;14.67;50.88;92577.09;4970763;28;20051;-94
2022/12/23 01:38:23;;;;;;;4.80;3.15;;;;;;;14.69;50.79;92574.59;4970362;28;20043;-91
2022/12/23 01:40:48;;;;;;;4.13;3.20;;;;;;;14.64;51.06;92565.22;4971475;28;20054;-92
2022/12/23 01:43:14;;;;;;;4.75;3.53;;;;;;;14.65;50.52;92566.72;4954558;28;20071;-90
2022/12/23 01:45:40;;;;;;;4.60;3.13;;;;;;;14.65;50.43;92555.81;4954825;28;20049;-94
2022/12/23 01:48:08;;;;;;;5.82;3.30;;;;;;;14.68;50.91;92559.53;4970121;28;20047;-91
2022/12/23 01:50:34;;;;;;;4.85;3.10;;;;;;;14.66;50.73;92556.56;4970360;28;20055;-90
2022/12/23 01:53:05;;;;;;;4.72;3.33;;;;;;;14.67;50.82;92556.06;4972126;28;20130;-90
2022/12/23 01:55:32;;;;;;;4.78;2.63;;;;;;;14.66;50.79;92556.56;4969675;28;20054;-93
2022/12/23 01:58:09;;;;;;;4.75;2.72;;;;;;;14.69;50.67;92553.56;4938769;28;20547;-88
2022/12/23 02:11:46;;;;;;;5.35;2.85;;;;;;;14.70;50.50;92557.78;4956716;28;20441;-92
2022/12/23 02:17:06;;;;;;;4.43;2.70;;;;;;;14.66;50.84;92540.97;4970953;28;20042;-90
2022/12/23 02:20:10;;;;;;;4.18;2.88;;;;;;;14.67;50.69;92539.00;4953979;28;20074;-89
2022/12/23 02:22:53;;;;;;;3.55;2.95;;;;;;;14.67;50.34;92541.72;4950258;28;20044;-93
2022/12/23 02:25:41;;;;;;;4.60;3.15;;;;;;;14.67;50.66;92536.28;4964328;28;20098;-93
2022/12/23 02:28:21;;;;;;;3.10;2.30;;;;;;;14.70;50.50;92536.00;4969175;28;20039;-92
2022/12/23 02:30:59;;;;;;;4.55;2.35;;;;;;;14.66;50.56;92540.25;4954819;28;20039;-93
2022/12/23 02:33:31;;;;;;;5.05;2.75;;;;;;;14.66;50.38;92530.09;4969652;28;20492;-90
2022/12/23 02:36:02;;;;;;;5.75;2.85;;;;;;;14.66;50.44;92530.09;4952992;28;20174;-92
2022/12/23 02:38:30;;;;;;;;;;;;;;;14.72;50.58;92530.78;4954718;28;20046;-94
2022/12/23 02:41:06;;;;;;;5.20;3.00;;;;;;;14.66;50.25;92530.09;4971718;28;19921;-89
2022/12/23 02:43:38;;;;;;;3.70;2.58;;;;;;;14.62;50.68;92532.34;4937555;28;20129;-87
2022/12/23 02:46:11;;;;;;;4.88;2.65;;;;;;;14.67;50.80;92533.56;4969614;28;20093;-92
2022/12/23 02:48:43;;;;;;;3.85;2.55;;;;;;;14.67;50.65;92526.13;4938165;28;20047;-94
2022/12/23 02:51:08;;;;;;;2.88;2.20;;;;;;;14.69;50.43;92528.34;4957946;28;20156;-93
2022/12/23 02:53:36;;;;;;;3.60;2.53;;;;;;;14.65;50.62;92523.19;4970322;28;20047;-88
2022/12/23 02:56:01;;;;;;;6.25;2.85;;;;;;;14.66;50.38;92521.94;4954212;28;20042;-91
2022/12/23 02:58:36;;;;;;;3.55;2.28;;;;;;;14.64;50.38;92521.72;4952607;28;20043;-92
2022/12/23 03:01:02;;;;;;;3.28;2.00;;;;;;;14.63;50.02;92522.22;4953884;28;20504;-92
2022/12/23 03:03:27;;;;;;;3.88;2.22;;;;;;;14.66;50.41;92523.94;4937778;28;20675;-90
2022/12/23 03:05:53;;;;;;;3.00;2.10;;;;;;;14.63;50.36;92509.34;4934623;29;20035;-94
2022/12/23 03:08:24;;;;;;;4.32;2.42;;;;;;;14.65;50.47;92527.88;4955529;28;20035;-89
2022/12/23 03:11:06;;;;;;;4.40;2.38;;;;;;;14.64;50.58;92526.41;4958425;28;20078;-91
2022/12/23 03:13:50;;;;;;;3.95;2.00;;;;;;;14.64;50.55;92527.16;4956905;28;20047;-94
2022/12/23 03:16:38;;;;;;;2.78;2.05;;;;;;;14.64;50.60;92527.16;4973888;28;20039;-91
2022/12/23 03:19:15;;;;;;;3.50;2.22;;;;;;;14.66;50.39;92519.22;4987575;28;20038;-94
2022/12/23 03:21:46;;;;;;;2.67;2.03;;;;;;;14.64;50.47;92521.72;4989626;28;20046;-93
2022/12/23 03:24:39;;;;;;;2.88;2.25;;;;;;;14.68;50.44;92522.19;4974361;28;20122;-91
2022/12/23 03:27:09;;;;;;;4.07;2.20;;;;;;;14.66;50.58;92524.66;4972739;28;20046;-90
2022/12/23 03:30:02;;;;;;;3.72;2.47;;;;;;;14.66;50.45;92518.47;4957152;28;20042;-92
2022/12/23 03:32:30;;;;;;;2.83;2.08;;;;;;;14.65;50.28;92517.75;4972937;28;20097;-93
2022/12/23 03:34:56;;;;;;;3.05;2.03;;;;;;;14.69;50.29;92512.78;4941423;28;20039;-95
2022/12/23 03:37:21;;;;;;;2.88;1.92;;;;;;;14.66;50.66;92521.22;4955975;28;20559;-93
2022/12/23 03:39:51;;;;;;;3.20;1.65;;;;;;;14.67;50.38;92509.81;4973528;28;20043;-93
2022/12/23 03:42:29;;;;;;;3.60;2.00;;;;;;;14.68;50.26;92524.16;4940528;28;20058;-91
2022/12/23 03:44:56;;;;;;;2.88;2.10;;;;;;;14.68;50.54;92519.47;4958798;28;20030;-93
2022/12/23 03:47:33;;;;;;;2.88;2.00;;;;;;;14.66;50.46;92529.38;4956074;28;20039;-93
2022/12/23 03:50:05;;;;;;;3.80;2.30;;;;;;;14.68;50.48;92535.03;4956247;28;20564;-91
2022/12/23 03:52:35;;;;;;;4.25;1.92;;;;;;;14.66;50.50;92532.09;4955266;28;20047;-92
2022/12/23 03:55:04;;;;;;;4.10;1.93;;;;;;;14.65;50.18;92533.34;4956976;28;20054;-88
2022/12/23 03:57:36;;;;;;;4.00;2.00;;;;;;;14.66;50.76;92532.81;4939389;28;20566;-91
2022/12/23 04:00:02;;;;;;;3.58;2.20;;;;;;;14.63;50.43;92538.53;4956650;28;20496;-93
2022/12/23 04:02:54;;;;;;;3.72;2.10;;;;;;;14.65;50.69;92539.50;4922428;29;20090;-91
2022/12/23 04:05:33;;;;;;;3.10;1.77;;;;;;;14.65;50.34;92531.34;4935359;29;20043;-93
2022/12/23 04:08:02;;;;;;;3.85;2.13;;;;;;;14.66;50.74;92534.81;4936628;29;20043;-90
2022/12/23 04:10:28;;;;;;;2.92;2.28;;;;;;;14.63;50.41;92542.00;4952698;29;20047;-90
2022/12/23 04:12:54;;;;;;;3.20;2.10;;;;;;;14.62;50.64;92532.34;4933095;29;20047;-87
2022/12/23 04:15:23;;;;;;;3.28;1.98;;;;;;;14.62;50.43;92532.34;4917732;29;20055;-90
2022/12/23 04:17:49;;;;;;;2.05;1.70;;;;;;;14.62;50.58;92526.91;4933703;29;20063;-90
2022/12/23 04:20:15;;;;;;;2.65;2.00;;;;;;;14.65;50.57;92506.88;4952376;28;20304;-91
2022/12/23 04:22:42;;;;;;;5.45;1.80;;;;;;;14.64;50.36;92491.78;4948685;28;20050;-91
2022/12/23 04:25:08;;;;;;;2.17;1.45;;;;;;;14.63;50.21;92497.75;4945292;29;20040;-92
2022/12/23 04:27:34;;;;;;;3.13;2.10;;;;;;;14.62;50.17;92486.13;4934109;29;20094;-94
2022/12/23 04:29:59;;;;;;;5.28;2.22;;;;;;;14.61;50.21;92486.63;4936862;29;20047;-93
2022/12/23 04:32:25;;;;;;;3.13;1.50;;;;;;;14.63;50.51;92484.13;4936807;29;20450;-93
2022/12/23 04:34:51;;;;;;;3.83;2.13;;;;;;;14.58;50.25;92474.78;4953461;28;20138;-94
2022/12/23 04:37:16;;;;;;;3.28;1.55;;;;;;;14.60;50.31;92485.88;4957893;28;20058;-94
2022/12/23 04:39:41;;;;;;;2.58;1.60;;;;;;;14.60;50.74;92483.16;4984366;28;20043;-91
2022/12/23 04:42:07;;;;;;;3.55;1.95;;;;;;;14.62;50.36;92477.97;4967798;28;20031;-90
2022/12/23 04:44:32;;;;;;;2.83;2.03;;;;;;;14.61;50.31;92481.94;4955852;28;20493;-89
2022/12/23 04:46:58;;;;;;;2.45;1.95;;;;;;;14.63;50.48;92484.88;4936881;29;20039;-89
2022/12/23 04:49:23;;;;;;;2.85;1.65;;;;;;;14.66;50.57;92483.13;4951325;28;20520;-91
2022/12/23 04:51:48;;;;;;;2.28;1.55;;;;;;;14.62;50.35;92486.13;4952589;28;20047;-92
2022/12/23 04:54:14;;;;;;;3.85;1.80;;;;;;;14.65;50.32;92484.38;4936659;29;20564;-93
2022/12/23 04:56:39;;;;;;;2.80;1.50;;;;;;;14.64;50.42;92488.34;4936330;29;20039;-92
2022/12/23 04:59:05;;;;;;;2.42;1.50;;;;;;;14.63;50.35;92492.28;4951712;28;20071;-92
2022/12/23 05:01:30;;;;;;;4.88;2.40;;;;;;;14.67;50.25;92487.31;4995226;28;20051;-87
2022/12/23 05:03:56;;;;;;;1.90;1.65;;;;;;;14.62;50.54;92482.66;4955341;28;20066;-92
2022/12/23 05:06:21;;;;;;;3.08;1.65;;;;;;;14.67;50.55;92488.06;4955503;28;20511;-94
2022/12/23 05:08:47;;;;;;;3.03;1.80;;;;;;;14.64;50.23;92485.63;4971649;28;20035;-94
2022/12/23 05:11:14;;;;;;;3.13;1.65;;;;;;;14.63;50.54;92481.41;4954868;28;20492;-92
2022/12/23 05:13:39;;;;;;;1.77;1.38;;;;;;;14.62;50.24;92486.13;4935820;29;20544;-91
2022/12/23 05:16:05;;;;;;;2.15;1.58;;;;;;;14.65;50.34;92476.22;4984323;28;20043;-93
2022/12/23 05:18:31;;;;;;;3.65;1.90;;;;;;;14.60;50.25;92482.44;4969779;28;20051;-93
2022/12/23 05:20:56;;;;;;;4.25;1.20;;;;;;;14.63;50.70;92482.16;4955365;28;20058;-92
2022/12/23 05:23:21;;;;;;;1.88;1.27;;;;;;;14.66;50.45;92483.13;4970527;28;20047;-92
2022/12/23 05:25:52;;;;;;;2.38;1.55;;;;;;;14.63;50.36;92473.25;4938379;28;20035;-92
2022/12/23 05:28:19;;;;;;;2.05;1.50;;;;;;;14.65;50.26;92484.38;4954886;28;20050;-94
2022/12/23 05:30:44;;;;;;;2.28;1.60;;;;;;;14.65;50.75;92487.09;4938480;28;20493;-89
2022/12/23 05:33:09;;;;;;;4.22;1.27;;;;;;;14.79;50.30;92485.97;4954570;28;20039;-90
2022/12/23 05:35:35;;;;;;;2.22;1.30;;;;;;;14.64;50.40;92485.63;4955029;28;20047;-91
2022/12/23 05:38:02;;;;;;;1.60;1.50;;;;;;;14.64;50.56;92486.34;4970887;28;20046;-92
2022/12/23 05:40:28;;;;;;;2.08;1.40;;;;;;;14.65;50.53;92489.81;4938688;28;20063;-93
2022/12/23 05:42:53;;;;;;;2.55;1.55;;;;;;;14.71;50.29;92493.22;4970877;28;20102;-93
2022/12/23 05:45:19;;;;;;;1.95;1.30;;;;;;;14.64;50.40;92480.91;4971813;28;20045;-89
2022/12/23 05:47:45;;;;;;;1.95;1.20;;;;;;;14.65;50.57;92496.00;4953004;28;20505;-88
2022/12/23 05:50:10;;;;;;;2.00;1.50;;;;;;;14.64;50.44;92493.78;4937870;28;20069;-91
2022/12/23 05:52:36;;;;;;;1.73;1.20;;;;;;;14.65;50.45;92501.44;4951488;28;20390;-91
2022/12/23 05:55:01;;;;;;;2.47;1.20;;;;;;;14.65;50.43;92504.16;4967717;28;20109;-91
2022/12/23 05:57:27;;;;;;;1.90;1.13;;;;;;;14.63;50.43;92503.91;4937557;28;20047;-90
2022/12/23 05:59:52;;;;;;;1.88;1.02;;;;;;;14.69;50.37;92491.00;4950795;28;20453;-89
2022/12/23 06:02:19;;;;;;;1.58;1.20;;;;;;;14.68;50.31;92500.41;4959141;28;20055;-93
2022/12/23 06:04:44;;;;;;;1.92;1.52;;;;;;;14.67;50.27;92503.63;4951168;28;20047;-87
2022/12/23 06:07:10;;;;;;;3.60;1.15;;;;;;;14.67;50.43;92509.81;4985477;28;20086;-95
2022/12/23 06:09:35;;;;;;;2.58;1.23;;;;;;;14.67;50.33;92500.91;4970492;28;20451;-93
2022/12/23 06:12:00;;;;;;;2.50;1.10;;;;;;;14.68;50.33;92496.97;4953712;28;20046;-89
2022/12/23 06:14:26;;;;;;;1.05;0.90;;;;;;;14.66;50.66;92494.00;4953997;28;20488;-89
2022/12/23 06:16:51;;;;;;;2.78;1.15;;;;;;;14.62;50.20;92501.69;4972444;28;20492;-94
2022/12/23 06:19:17;;;;;;;2.45;0.90;;;;;;;14.62;50.22;92502.44;4956784;28;20478;-91
2022/12/23 06:21:43;;;;;;;1.23;1.05;;;;;;;14.62;50.21;92499.72;4960606;28;20079;-92
2022/12/23 06:24:08;;;;;;;1.63;1.00;;;;;;;14.65;50.88;92506.13;4958900;28;20028;-90
2022/12/23 06:26:34;;;;;;;2.15;1.13;;;;;;;14.64;50.39;92504.66;4950454;28;20035;-90
2022/12/23 06:29:00;;;;;;;1.88;1.15;;;;;;;14.68;50.32;92505.13;4959307;28;20415;-89
2022/12/23 06:31:25;;;;;;;0.80;0.63;;;;;;;14.67;50.15;92509.81;4957923;28;20054;-91
2022/12/23 06:33:51;;;;;;;1.77;0.90;;;;;;;14.70;50.41;92514.25;4937600;28;20046;-91
2022/12/23 06:36:16;;;;;;;3.63;1.20;;;;;;;14.67;49.79;92514.53;4953457;28;20491;-88
2022/12/23 06:38:42;;;;;;;1.70;0.82;;;;;;;14.65;50.35;92519.72;4934080;28;20039;-91
2022/12/23 06:41:07;;;;;;;1.55;0.70;;;;;;;14.73;50.23;92528.78;4952217;28;20038;-92
2022/12/23 06:43:33;;;;;;;2.38;1.00;;;;;;;14.77;50.17;92533.97;4937064;28;20057;-88
2022/12/23 06:45:59;;;;;;;1.80;0.88;;;;;;;14.75;49.94;92531.75;4954227;28;20047;-90
2022/12/23 06:48:25;;;;;;;1.35;0.60;;;;;;;14.68;50.33;92533.06;4968503;28;20050;-93
2022/12/23 06:50:50;;;;;;;0.65;0.65;;;;;;;14.65;50.38;92538.78;4969114;28;20043;-90
2022/12/23 06:53:15;;;;;;;2.50;0.80;;;;;;;14.64;50.30;92540.00;4964352;28;20035;-92
2022/12/23 06:55:41;;;;;;;1.25;0.73;;;;;;;14.65;50.33;92536.78;4965261;28;20553;-89
2022/12/23 06:58:06;;;;;;;1.38;0.90;;;;;;;14.65;50.21;92533.34;4968525;28;20500;-86
2022/12/23 07:00:32;;;;;;;1.30;0.60;;;;;;;14.67;50.54;92547.91;4949214;28;20074;-93
2022/12/23 07:02:57;;;;;;;0.70;0.65;;;;;;;14.69;50.50;92550.13;4949377;28;20047;-88
2022/12/23 07:05:22;;;;;;;2.95;0.75;;;;;;;14.66;50.13;92543.69;4965688;28;20055;-92
2022/12/23 07:07:48;;;;;;;0.82;0.80;;;;;;;14.65;50.35;92549.66;4950594;28;20398;-92
2022/12/23 07:10:13;;;;;;;1.00;0.70;;;;;;;14.64;50.26;92545.44;4949743;28;20415;-89
2022/12/23 07:12:39;;;;;;;2.30;0.68;;;;;;;14.63;50.43;92544.72;4936859;28;20058;-90
2022/12/23 07:15:04;;;;;;;1.23;0.70;;;;;;;14.67;50.32;92547.16;4933328;28;20518;-92
2022/12/23 07:17:30;;;;;;;1.35;0.68;;;;;;;14.63;50.22;92549.41;4949388;28;20305;-91
2022/12/23 07:19:55;;;;;;;1.08;0.55;;;;;;;14.65;50.13;92558.56;4934011;29;20452;-91
2022/12/23 07:22:21;;;;;;;0.95;0.65;;;;;;;14.64;50.49;92559.78;4933142;29;20039;-87
2022/12/23 07:24:46;;;;;;;2.47;1.00;;;;;;;14.68;50.38;92578.56;4949682;29;20043;-92
2022/12/23 07:27:12;;;;;;;1.80;0.80;;;;;;;14.65;50.42;92577.59;4932866;28;20432;-93
2022/12/23 07:29:37;;;;;;;0.57;0.52;;;;;;;14.65;50.32;92580.31;4933855;29;20054;-93
2022/12/23 07:32:03;;;;;;;0.98;0.80;;;;;;;14.65;50.12;92587.72;4949010;28;20437;-91
2022/12/23 07:34:28;;;;;;;1.88;0.70;;;;;;;14.68;50.22;92578.56;4949761;28;20504;-92
2022/12/23 07:36:54;;;;;;;1.65;0.75;;;;;;;14.65;50.41;92574.13;4949914;28;20066;-90
2022/12/23 07:39:19;;;;;;;1.30;0.75;;;;;;;14.66;50.28;92570.91;4932154;28;20043;-88
2022/12/23 07:41:45;;;;;;;0.57;0.57;;;;;;;14.64;50.32;92580.81;4933920;29;20043;-93
2022/12/23 07:44:10;;;;;;;0.80;0.70;;;;;;;14.62;50.84;92586.03;4946867;28;20036;-91
2022/12/23 07:46:36;;;;;;;2.47;0.60;;;;;;;14.66;50.24;92579.06;4934648;28;20040;-91
2022/12/23 07:49:01;;;;;;;1.50;0.65;;;;;;;14.67;50.51;92582.53;4954030;28;20099;-88
2022/12/23 07:51:26;;;;;;;0.98;0.50;;;;;;;14.68;50.09;92576.56;4944833;28;20047;-89
2022/12/23 07:53:52;;;;;;;0.80;0.75;;;;;;;14.71;50.16;92578.28;4943985;28;20138;-93
2022/12/23 07:56:17;;;;;;;0.73;0.55;;;;;;;14.71;50.07;92580.28;4952869;28;20035;-92
2022/12/23 07:58:46;;;;;;;0.93;0.60;;;;;;;14.72;50.01;92582.47;4953731;29;20046;-92
2022/12/23 08:01:12;;;;;;;0.63;0.60;;;;;;;14.68;50.19;92581.28;4944622;28;20401;-91
2022/12/23 08:03:37;;;;;;;2.08;0.70;;;;;;;14.70;51.06;92579.53;4942941;29;20043;-90
2022/12/23 08:06:11;;;;;;;1.20;0.65;;;;;;;14.72;51.90;92584.47;4940359;28;20039;-92
2022/12/23 08:08:36;;;;;;;2.50;0.63;;;;;;;14.88;50.11;92582.84;4942143;29;20134;-94
2022/12/23 08:11:03;;;;;;;3.88;0.82;;;;;;;14.83;50.11;92572.75;4960913;28;20043;-92
2022/12/23 08:13:31;;;;;;;0.70;0.70;;;;;;;14.78;50.31;92585.16;4960061;28;20074;-90
2022/12/23 08:15:57;;;;;;;2.00;0.70;;;;;;;14.70;50.39;92581.50;4944526;29;20053;-92
2022/12/23 08:18:22;;;;;;;1.20;0.75;;;;;;;14.79;50.31;92588.59;4926473;28;20055;-90
2022/12/23 08:20:59;;;;;;;2.05;1.00;;;;;;;14.68;50.61;92586.72;4944030;29;20035;-94
2022/12/23 08:23:24;;;;;;;1.83;1.10;;;;;;;14.63;50.58;92584.78;4958228;28;20147;-89
2022/12/23 08:25:59;;;;;;;2.25;0.98;;;;;;;14.52;50.78;92590.28;4937930;29;20067;-91
2022/12/23 08:28:25;;;;;;;2.15;0.95;;;;;;;14.61;50.69;92592.69;4955021;28;20039;-92
2022/12/23 08:30:50;;;;;;;2.28;0.75;;;;;;;14.48;51.06;92603.44;4946203;29;20039;-92
2022/12/23 08:33:16;;;;;;;1.50;1.13;;;;;;;14.52;50.98;92603.88;4936420;28;20047;-92
2022/12/23 08:35:41;;;;;;;1.85;0.90;;;;;;;14.49;50.79;92597.50;4951860;28;20166;-92
2022/12/23 08:38:06;;;;;;;1.85;0.80;;;;;;;14.42;51.26;92600.75;4935127;28;20527;-89
2022/12/23 08:40:32;;;;;;;1.02;0.90;;;;;;;14.46;51.08;92614.06;4950882;28;20380;-91
2022/12/23 08:42:57;;;;;;;1.70;1.00;;;;;;;14.47;51.09;92601.97;4936299;29;20031;-91
2022/12/23 08:45:24;;;;;;;3.22;1.10;;;;;;;14.47;51.01;92601.97;4962027;28;20046;-90
2022/12/23 08:47:50;;;;;;;1.67;1.05;;;;;;;14.51;51.00;92605.13;4954802;28;20100;-88
2022/12/23 08:50:15;;;;;;;4.10;1.27;;;;;;;14.49;51.49;92602.94;4935717;28;20131;-91
2022/12/23 08:52:41;;;;;;;1.60;1.20;;;;;;;14.40;51.22;92603.97;4904013;28;20658;-90
2022/12/23 08:55:06;;;;;;;0.80;0.70;;;;;;;14.45;51.44;92605.19;4962212;28;20451;-92
2022/12/23 08:57:33;;;;;;;11.50;1.73;;;;;;;14.42;51.38;92603.47;4936052;29;20507;-90
2022/12/23 08:59:58;;;;;;;1.17;0.85;;;;;;;14.36;51.56;92606.19;4942509;28;20046;-89
2022/12/23 09:02:23;;;;;;;1.83;1.20;;;;;;;14.39;51.46;92607.16;4937384;28;20039;-92
2022/12/23 09:04:49;;;;;;;1.10;1.00;;;;;;;14.43;51.40;92604.94;4903730;29;20036;-91
2022/12/23 09:07:14;;;;;;;1.30;1.20;;;;;;;14.39;51.69;92602.47;4950599;28;20055;-92
2022/12/23 09:09:40;;;;;;;2.60;1.35;;;;;;;14.45;51.71;92596.28;4951780;28;20043;-91
2022/12/23 09:12:05;;;;;;;1.10;0.98;;;;;;;14.43;51.50;92593.31;4946054;28;20057;-91
2022/12/23 09:14:30;;;;;;;1.60;1.20;;;;;;;14.46;51.36;92597.75;4951563;28;20460;-88
2022/12/23 09:16:56;;;;;;;0.95;0.88;;;;;;;14.43;52.03;92598.75;4919698;29;20386;-90
2022/12/23 09:19:21;;;;;;;1.77;0.93;;;;;;;14.46;51.70;92601.22;4970014;28;20520;-91
2022/12/23 09:21:47;;;;;;;3.58;1.40;;;;;;;14.40;52.16;92606.69;4951069;28;20044;-88
2022/12/23 09:24:12;;;;;;;4.95;1.30;;;;;;;14.40;52.27;92605.91;4934356;28;20044;-89
2022/12/23 09:26:37;;;;;;;1.88;1.20;;;;;;;14.45;52.20;92602.47;4950566;28;20114;-93
2022/12/23 09:29:03;;;;;;;1.88;1.38;;;;;;;14.45;52.15;92602.47;4943824;28;20105;-89
2022/12/23 09:31:28;;;;;;;1.33;1.15;;;;;;;14.51;51.81;92594.25;4953107;28;20354;-92
2022/12/23 09:33:54;;;;;;;2.08;1.23;;;;;;;14.54;52.09;92609.56;4970415;28;20043;-91
2022/12/23 09:36:20;;;;;;;1.25;1.08;;;;;;;14.50;52.37;92604.41;4953686;28;20050;-90
2022/12/23 09:38:45;;;;;;;1.70;1.15;;;;;;;14.34;52.64;92613.34;4966635;28;20062;-92
2022/12/23 09:41:29;;;;;;;1.85;1.40;;;;;;;14.37;52.46;92601.47;4923469;28;20117;-93
2022/12/23 09:44:13;;;;;;;2.35;1.30;;;;;;;14.38;52.53;92608.41;4950323;28;20382;-93
2022/12/23 09:46:53;;;;;;;1.20;1.10;;;;;;;14.33;52.69;92618.06;4934161;29;20053;-87
2022/12/23 09:49:18;;;;;;;1.40;1.30;;;;;;;14.33;52.72;92611.88;4949079;28;20063;-88
2022/12/23 09:51:44;;;;;;;1.60;1.30;;;;;;;14.27;53.08;92620.09;4934032;29;20040;-88
2022/12/23 09:54:28;;;;;;;1.70;1.40;;;;;;;14.31;52.89;92630.66;4947426;28;20508;-92
2022/12/23 09:57:01;;;;;;;1.38;1.27;;;;;;;14.35;52.91;92631.88;4985710;28;20042;-90
2022/12/23 09:59:44;;;;;;;2.88;1.58;;;;;;;14.33;53.04;92628.94;4966893;28;20097;-90
2022/12/23 10:02:23;;;;;;;1.92;1.52;;;;;;;14.37;53.00;92637.56;4963447;28;20445;-92
2022/12/23 10:04:55;;;;;;;1.50;1.40;;;;;;;14.37;53.08;92636.81;4949352;28;20086;-88
2022/12/23 10:07:32;;;;;;;1.55;1.30;;;;;;;14.34;52.49;92645.97;4948246;28;20067;-91
2022/12/23 10:09:57;;;;;;;1.27;1.17;;;;;;;14.29;53.67;92644.06;4963400;28;20035;-92
2022/12/23 10:12:31;;;;;;;1.67;1.42;;;;;;;14.24;53.63;92639.38;4965300;28;20043;-91
2022/12/23 10:14:57;;;;;;;2.22;1.63;;;;;;;14.32;53.53;92656.63;4948843;28;20133;-87
2022/12/23 10:17:29;;;;;;;3.70;2.50;;;;;;;14.33;53.36;92655.38;4900937;29;20513;-90
2022/12/23 10:19:56;;;;;;;8.43;5.25;;;;;;;14.24;53.74;92644.81;4949562;28;20043;-91
2022/12/23 10:22:29;;;;;;;19.63;8.95;;;;;;;14.28;53.37;92650.72;4932361;28;20067;-89
2022/12/23 10:24:54;;;;;;;22.65;8.23;;;;;;;14.31;53.69;92652.41;4948743;28;20362;-93
2022/12/23 10:27:30;;;;;;;19.77;9.15;;;;;;;14.34;53.69;92662.28;4945396;28;20118;-88
2022/12/23 10:30:15;;;;;;;14.77;8.30;;;;;;;14.36;53.73;92666.00;4917764;28;20055;-91
2022/12/23 10:32:49;;;;;;;14.57;7.88;;;;;;;14.30;53.79;92659.84;4962592;28;20067;-91
2022/12/23 10:35:25;;;;;;;19.73;8.40;;;;;;;14.26;53.84;92655.94;4933186;29;20039;-89
2022/12/23 10:38:09;;;;;;;12.60;7.13;;;;;;;14.25;53.84;92659.88;4932269;29;20457;-91
2022/12/23 10:40:44;;;;;;;12.57;6.50;;;;;;;14.23;54.19;92671.25;4939430;28;20474;-90
2022/12/23 10:43:30;;;;;;;13.52;7.20;;;;;;;14.22;54.28;92663.59;4966903;28;20485;-89
2022/12/23 10:46:24;;;;;;;9.73;5.63;;;;;;;14.25;54.05;92668.78;4945794;28;20039;-92
2022/12/23 10:49:21;;;;;;;9.38;5.00;;;;;;;14.30;54.12;92669.97;4952006;28;20039;-88
2022/12/23 10:51:48;;;;;;;9.63;5.80;;;;;;;14.29;54.08;92665.81;4939272;29;20062;-91
2022/12/23 10:54:20;;;;;;;9.90;5.78;;;;;;;14.30;54.12;92661.81;4946767;28;20065;-90
2022/12/23 10:56:45;;;;;;;8.45;4.63;;;;;;;14.31;53.92;92669.47;4951604;28;20547;-90
2022/12/23 10:59:14;;;;;;;8.57;5.28;;;;;;;14.19;54.16;92676.22;4951411;28;20042;-91
2022/12/23 11:01:39;;;;;;;8.55;5.68;;;;;;;14.30;54.32;92664.53;4930423;28;1100802;-90
2022/12/23 11:04:06;;;;;;;6.43;3.97;;;;;;;14.33;53.94;92661.56;4942857;28;20055;-91
2022/12/23 11:06:32;;;;;;;6.57;4.50;;;;;;;14.31;54.05;92664.03;4932443;29;20062;-91
2022/12/23 11:08:58;;;;;;;7.38;4.00;;;;;;;14.25;54.16;92649.75;4965738;28;20603;-92
2022/12/23 11:11:23;;;;;;;5.95;3.72;;;;;;;14.26;54.20;92664.81;4933204;28;20449;-88
2022/12/23 11:13:49;;;;;;;6.55;4.40;;;;;;;14.30;54.27;92648.97;4949160;28;20039;-91
2022/12/23 11:16:22;;;;;;;5.32;3.67;;;;;;;14.30;54.37;92648.22;4932726;28;20077;-89
2022/12/23 11:19:01;;;;;;;4.90;4.15;;;;;;;14.25;54.30;92644.31;4948740;28;20126;-89
2022/12/23 11:21:27;;;;;;;5.90;3.53;;;;;;;14.24;54.26;92648.28;4931609;29;20047;-86
2022/12/23 11:24:16;;;;;;;4.90;3.55;;;;;;;14.32;54.10;92643.75;4964415;28;20075;-86
2022/12/23 11:26:43;;;;;;;6.35;3.70;;;;;;;14.23;54.28;92641.34;4929678;28;20046;-91
2022/12/23 11:29:11;;;;;;;4.57;3.47;;;;;;;14.28;54.21;92639.84;4956009;28;20047;-88
2022/12/23 11:31:36;;;;;;;4.82;3.58;;;;;;;14.39;54.04;92640.53;4956046;28;20046;-90
2022/12/23 11:34:10;;;;;;;4.15;3.15;;;;;;;14.39;54.09;92645.22;4968912;28;20039;-91
2022/12/23 11:36:36;;;;;;;5.63;3.53;;;;;;;14.33;53.97;92647.97;4962690;28;20511;-87
2022/12/23 11:39:03;;;;;;;3.75;2.90;;;;;;;14.34;54.18;92640.53;4988492;28;20051;-89
2022/12/23 11:41:34;;;;;;;4.60;3.22;;;;;;;14.39;54.14;92639.78;4961335;28;20422;-89
2022/12/23 11:44:02;;;;;;;;;;;;;;;14.35;53.96;92642.03;4936911;28;20069;-91
2022/12/23 11:46:29;;;;;;;3.25;2.67;;;;;;;14.22;54.53;92636.41;4937070;29;19997;-88
2022/12/23 11:49:14;;;;;;;3.35;2.70;;;;;;;14.26;54.58;92643.06;4936742;28;20050;-90
2022/12/23 11:51:39;;;;;;;4.22;2.92;;;;;;;14.25;54.45;92638.13;4967819;28;20200;-86
2022/12/23 11:54:05;;;;;;;3.42;2.70;;;;;;;14.21;54.88;92629.50;4951749;28;20036;-90
2022/12/23 11:56:35;;;;;;;3.88;2.38;;;;;;;14.29;54.26;92625.72;4946296;28;20051;-89
2022/12/23 11:59:05;;;;;;;2.70;2.50;;;;;;;14.32;54.29;92632.16;4954915;28;20142;-92
2022/12/23 12:01:31;;;;;;;4.88;2.95;;;;;;;14.30;54.54;92632.66;4946730;28;20045;-87
2022/12/23 12:03:59;;;;;;;2.60;2.40;;;;;;;14.33;54.39;92625.47;4955218;28;20047;-90
2022/12/23 12:06:25;;;;;;;2.42;2.10;;;;;;;14.39;54.18;92632.38;4950933;28;20460;-88
2022/12/23 12:08:50;;;;;;;3.08;2.80;;;;;;;14.27;54.51;92630.22;4969198;28;20035;-88
2022/12/23 12:11:17;;;;;;;2.65;2.33;;;;;;;14.28;54.54;92645.28;4970620;28;20049;-92